Heiloo, Netherlands
Current Conditions -  °F | °C
As of 3:25 PM on Thursday 27 Nov 2014 (Local Time) from EHAM Reporting Station
Broken Clouds Broken Clouds  
Wind Chill: 45°   Ceiling: 1500
Heat Index: 48°   Visibility: 6mi
Dew Point: 43°   Wind: 8mph
Humidity: 82%   Direction: 110°ESE
Pressure: 29.71"   Gusts: NA
Location:  52.6°N, 4.69°E
Report Text: EHAM 271425Z 11007KT 080V140 9999 BKN015 09/06 Q1006 NOSIG
Loading
Personal Weather Stations






























Interactive Weather Map New forecast layout! Learn more

10-Day Weather Forecast

Advertisements
Track Severe Weather on mobile